createdAt,value
2023-05-17T00:00:02.601Z,83.92
2023-05-17T00:01:03.220Z,84.64
2023-05-17T00:02:03.459Z,84.44
2023-05-17T00:03:02.865Z,83.10
2023-05-17T00:04:03.427Z,83.61
2023-05-17T00:05:03.458Z,85.09
2023-05-17T00:06:03.088Z,84.58
2023-05-17T00:07:02.884Z,85.23
2023-05-17T00:08:03.019Z,85.74
2023-05-17T00:09:02.607Z,85.09
2023-05-17T00:10:02.614Z,83.96
2023-05-17T00:11:03.107Z,84.47
2023-05-17T00:12:02.681Z,83.45
2023-05-17T00:13:03.158Z,84.06
2023-05-17T00:14:03.325Z,84.61
2023-05-17T00:15:03.137Z,85.74
2023-05-17T00:16:03.230Z,86.15
2023-05-17T00:17:03.421Z,85.64
2023-05-17T00:18:03.128Z,84.61
2023-05-17T00:19:02.989Z,85.03
2023-05-17T00:20:02.945Z,85.23
2023-05-17T00:21:03.673Z,84.82
2023-05-17T00:22:03.963Z,83.90
2023-05-17T00:23:03.668Z,85.13
2023-05-17T00:24:03.495Z,86.09
2023-05-17T00:25:03.397Z,85.95
2023-05-17T00:26:03.117Z,87.22
2023-05-17T00:27:03.025Z,87.94
2023-05-17T00:28:02.872Z,86.81
2023-05-17T00:29:03.013Z,86.71
2023-05-17T00:30:02.833Z,86.91
2023-05-17T00:31:03.648Z,86.19
2023-05-17T00:32:03.489Z,85.47
2023-05-17T00:33:03.335Z,84.86
2023-05-17T00:34:03.558Z,85.47
2023-05-17T00:35:03.487Z,84.55
2023-05-17T00:36:03.054Z,83.83
2023-05-17T00:37:02.651Z,83.53
2023-05-17T00:38:03.219Z,84.08
2023-05-17T00:39:03.118Z,83.94
2023-05-17T00:40:02.727Z,84.28
2023-05-17T00:41:02.685Z,83.42
2023-05-17T00:42:03.234Z,83.98
2023-05-17T00:43:03.244Z,84.69
2023-05-17T00:44:03.246Z,85.41
2023-05-17T00:45:02.932Z,87.26
2023-05-17T00:46:03.826Z,86.75
2023-05-17T00:47:03.456Z,86.13
2023-05-17T00:48:03.544Z,86.65
2023-05-17T00:49:03.644Z,86.65
2023-05-17T00:50:03.515Z,86.33
2023-05-17T00:51:03.864Z,85.82
2023-05-17T00:52:03.438Z,86.27
2023-05-17T00:53:03.412Z,86.27
2023-05-17T00:54:03.569Z,86.68
2023-05-17T00:55:03.390Z,86.79
2023-05-17T00:56:03.261Z,86.58
2023-05-17T00:57:03.125Z,87.10
2023-05-17T00:58:03.030Z,87.30
2023-05-17T00:59:02.860Z,87.65
2023-05-17T01:00:02.754Z,87.85
2023-05-17T01:01:01.712Z,87.96
2023-05-17T01:02:02.196Z,88.98
2023-05-17T01:03:02.214Z,88.98
2023-05-17T01:04:01.799Z,88.89
2023-05-17T01:05:02.106Z,87.85
2023-05-17T01:06:02.463Z,86.93
2023-05-17T01:07:02.333Z,86.32
2023-05-17T01:08:02.804Z,87.04
2023-05-17T01:09:02.745Z,86.93
2023-05-17T01:10:02.505Z,86.32
2023-05-17T01:11:02.298Z,86.32
2023-05-17T01:12:02.907Z,87.49
2023-05-17T01:13:02.768Z,89.44
2023-05-17T01:14:02.669Z,88.68
2023-05-17T01:15:02.546Z,87.55
2023-05-17T01:16:02.424Z,87.65
2023-05-17T01:17:03.030Z,88.51
2023-05-17T01:18:02.675Z,87.04
2023-05-17T01:19:02.661Z,86.42
2023-05-17T01:20:02.996Z,87.18
2023-05-17T01:21:01.658Z,87.18
2023-05-17T01:22:01.711Z,86.66
2023-05-17T01:23:02.136Z,86.77
2023-05-17T01:24:02.021Z,86.35
2023-05-17T01:25:02.159Z,85.84
2023-05-17T01:26:01.898Z,85.53
2023-05-17T01:27:01.993Z,85.02
2023-05-17T01:28:01.860Z,84.91
2023-05-17T01:29:02.144Z,86.05
2023-05-17T01:30:02.245Z,87.59
2023-05-17T01:31:01.998Z,87.90
2023-05-17T01:32:02.212Z,87.38
2023-05-17T01:33:02.318Z,87.07
2023-05-17T01:34:02.337Z,86.35
2023-05-17T01:35:02.256Z,87.07
2023-05-17T01:36:01.755Z,87.59
2023-05-17T01:37:02.279Z,87.79
2023-05-17T01:38:01.677Z,86.91
2023-05-17T01:39:01.823Z,86.29
2023-05-17T01:40:01.657Z,85.57
2023-05-17T01:41:01.935Z,85.06
2023-05-17T01:42:02.564Z,86.08
2023-05-17T01:43:02.381Z,86.40
2023-05-17T01:44:02.000Z,85.36
2023-05-17T01:45:02.492Z,84.75
2023-05-17T01:46:02.076Z,84.34
2023-05-17T01:47:02.594Z,83.83
2023-05-17T01:48:02.229Z,83.51
2023-05-17T01:49:02.009Z,84.03
2023-05-17T01:50:02.552Z,83.83
2023-05-17T01:51:02.449Z,83.20
2023-05-17T01:52:02.588Z,84.03
2023-05-17T01:53:02.448Z,85.68
2023-05-17T01:54:02.997Z,86.74
2023-05-17T01:55:02.670Z,86.43
2023-05-17T01:56:01.565Z,87.15
2023-05-17T01:57:02.020Z,88.18
2023-05-17T01:58:01.715Z,89.52
2023-05-17T01:59:01.614Z,89.94
2023-05-17T02:00:01.639Z,90.03
2023-05-17T02:01:02.719Z,89.94
2023-05-17T02:02:02.536Z,89.62
2023-05-17T02:03:03.082Z,89.67
2023-05-17T02:04:02.798Z,90.18
2023-05-17T02:05:02.985Z,89.67
2023-05-17T02:06:02.817Z,89.25
2023-05-17T02:07:03.034Z,88.64
2023-05-17T02:08:02.928Z,87.92
2023-05-17T02:09:02.892Z,88.12
2023-05-17T02:10:02.898Z,87.40
2023-05-17T02:11:02.914Z,86.99
2023-05-17T02:12:03.344Z,86.79
2023-05-17T02:13:02.896Z,86.88
2023-05-17T02:14:03.519Z,86.79
2023-05-17T02:15:03.075Z,88.02
2023-05-17T02:16:02.554Z,88.95
2023-05-17T02:17:02.388Z,89.05
2023-05-17T02:18:03.005Z,89.15
2023-05-17T02:19:02.517Z,90.53
2023-05-17T02:20:02.392Z,90.73
2023-05-17T02:21:03.226Z,90.33
2023-05-17T02:22:03.656Z,91.46
2023-05-17T02:23:03.319Z,91.36
2023-05-17T02:24:03.479Z,92.74
2023-05-17T02:25:03.317Z,93.35
2023-05-17T02:26:03.367Z,93.56
2023-05-17T02:27:03.256Z,92.74
2023-05-17T02:28:03.555Z,91.81
2023-05-17T02:29:03.450Z,90.73
2023-05-17T02:30:03.257Z,89.81
2023-05-17T02:31:02.711Z,89.29
2023-05-17T02:32:02.707Z,89.09
2023-05-17T02:33:03.146Z,89.09
2023-05-17T02:34:03.245Z,89.09
2023-05-17T02:35:02.860Z,89.61
2023-05-17T02:36:02.767Z,89.91
2023-05-17T02:37:02.684Z,89.40
2023-05-17T02:38:02.788Z,90.16
2023-05-17T02:39:02.826Z,90.53
2023-05-17T02:40:02.702Z,90.01
2023-05-17T02:41:03.281Z,89.81
2023-05-17T02:42:03.566Z,89.85
2023-05-17T02:43:03.561Z,90.57
2023-05-17T02:44:03.505Z,91.81
2023-05-17T02:45:03.273Z,92.63
2023-05-17T02:46:03.099Z,92.47
2023-05-17T02:47:03.064Z,92.12
2023-05-17T02:48:02.859Z,91.64
2023-05-17T02:49:03.172Z,91.75
2023-05-17T02:50:02.652Z,92.16
2023-05-17T02:51:03.172Z,91.44
2023-05-17T02:52:03.103Z,91.64
2023-05-17T02:53:02.957Z,91.09
2023-05-17T02:54:03.031Z,90.26
2023-05-17T02:55:03.502Z,90.37
2023-05-17T02:56:03.348Z,89.65
2023-05-17T02:57:03.238Z,89.34
2023-05-17T02:58:03.425Z,89.13
2023-05-17T02:59:03.652Z,88.51
2023-05-17T03:00:03.707Z,89.03
2023-05-17T03:01:02.579Z,90.31
2023-05-17T03:02:02.775Z,92.27
2023-05-17T03:03:02.681Z,93.34
2023-05-17T03:04:02.571Z,93.75
2023-05-17T03:05:02.297Z,94.27
2023-05-17T03:06:02.049Z,94.47
2023-05-17T03:07:01.946Z,94.47
2023-05-17T03:08:01.835Z,93.75
2023-05-17T03:09:01.722Z,93.44
2023-05-17T03:10:02.132Z,93.85
2023-05-17T03:11:02.075Z,93.34
2023-05-17T03:12:01.922Z,93.13
2023-05-17T03:13:01.789Z,92.93
2023-05-17T03:14:01.640Z,92.47
2023-05-17T03:15:02.161Z,92.06
2023-05-17T03:16:02.542Z,91.54
2023-05-17T03:17:02.480Z,91.03
2023-05-17T03:18:02.540Z,91.13
2023-05-17T03:19:02.708Z,90.61
2023-05-17T03:20:02.295Z,90.20
2023-05-17T03:21:02.159Z,90.20
2023-05-17T03:22:02.246Z,89.89
2023-05-17T03:23:01.919Z,89.28
2023-05-17T03:24:01.882Z,88.96
2023-05-17T03:25:01.769Z,89.48
2023-05-17T03:26:02.509Z,89.58
2023-05-17T03:27:02.575Z,89.79
2023-05-17T03:28:02.108Z,89.38
2023-05-17T03:29:02.123Z,88.76
2023-05-17T03:30:02.672Z,88.96
2023-05-17T03:31:02.152Z,89.38
2023-05-17T03:32:01.825Z,89.28
2023-05-17T03:33:01.852Z,89.73
2023-05-17T03:34:02.100Z,89.83
2023-05-17T03:35:02.044Z,90.66
2023-05-17T03:36:02.700Z,91.28
2023-05-17T03:37:02.434Z,91.07
2023-05-17T03:38:02.648Z,90.97
2023-05-17T03:39:02.698Z,91.48
2023-05-17T03:40:02.657Z,91.89
2023-05-17T03:41:02.390Z,92.21
2023-05-17T03:42:01.932Z,92.41
2023-05-17T03:43:02.139Z,92.14
2023-05-17T03:44:02.159Z,92.86
2023-05-17T03:45:02.126Z,92.86
2023-05-17T03:46:02.506Z,92.25
2023-05-17T03:47:02.202Z,91.73
2023-05-17T03:48:02.215Z,91.01
2023-05-17T03:49:02.164Z,90.45
2023-05-17T03:50:02.225Z,89.94
2023-05-17T03:51:02.811Z,89.94
2023-05-17T03:52:02.766Z,89.94
2023-05-17T03:53:02.504Z,89.52
2023-05-17T03:54:02.650Z,89.42
2023-05-17T03:55:02.562Z,90.04
2023-05-17T03:56:02.255Z,90.66
2023-05-17T03:57:02.011Z,90.76
2023-05-17T03:58:01.965Z,90.35
2023-05-17T03:59:01.909Z,89.94
2023-05-17T04:00:02.191Z,89.52
2023-05-17T04:01:02.364Z,89.32
2023-05-17T04:02:02.013Z,89.11
2023-05-17T04:03:02.005Z,89.01
2023-05-17T04:04:02.310Z,88.59
2023-05-17T04:05:02.128Z,88.49
2023-05-17T04:06:02.736Z,88.80
2023-05-17T04:07:02.297Z,88.80
2023-05-17T04:08:02.289Z,88.70
2023-05-17T04:09:02.304Z,88.70
2023-05-17T04:10:02.286Z,88.29
2023-05-17T04:11:01.511Z,87.87
2023-05-17T04:12:01.499Z,87.66
2023-05-17T04:13:01.474Z,87.66
2023-05-17T04:14:01.366Z,87.26
2023-05-17T04:15:01.435Z,87.35
2023-05-17T04:16:01.845Z,87.63
2023-05-17T04:17:01.863Z,88.35
2023-05-17T04:18:01.918Z,88.96
2023-05-17T04:19:02.233Z,89.48
2023-05-17T04:20:01.979Z,90.35
2023-05-17T04:21:01.870Z,90.97
2023-05-17T04:22:02.589Z,90.97
2023-05-17T04:23:02.293Z,92.31
2023-05-17T04:24:02.214Z,92.97
2023-05-17T04:25:02.313Z,93.38
2023-05-17T04:26:01.944Z,93.59
2023-05-17T04:27:03.567Z,94.21
2023-05-17T04:28:02.332Z,95.24
2023-05-17T04:29:02.097Z,94.68
2023-05-17T04:30:02.019Z,93.85
2023-05-17T04:31:02.171Z,93.13
2023-05-17T04:32:02.269Z,92.72
2023-05-17T04:33:02.393Z,93.65
2023-05-17T04:34:02.421Z,93.85
2023-05-17T04:35:02.501Z,94.27
2023-05-17T04:36:02.744Z,94.37
2023-05-17T04:37:01.873Z,94.57
2023-05-17T04:38:02.225Z,95.09
2023-05-17T04:39:02.110Z,94.43
2023-05-17T04:40:01.909Z,94.43
2023-05-17T04:41:02.046Z,94.64
2023-05-17T04:42:01.675Z,94.32
2023-05-17T04:43:01.748Z,94.49
2023-05-17T04:44:01.773Z,94.18
2023-05-17T04:45:01.876Z,93.87
2023-05-17T04:46:01.669Z,93.56
2023-05-17T04:47:01.893Z,94.70
2023-05-17T04:48:01.915Z,95.21
2023-05-17T04:49:01.928Z,95.21
2023-05-17T04:50:01.701Z,95.42
2023-05-17T04:51:01.819Z,95.42
2023-05-17T04:52:03.482Z,95.17
2023-05-17T04:53:01.816Z,95.06
2023-05-17T04:54:01.881Z,94.96
2023-05-17T04:55:01.634Z,94.40
2023-05-17T04:56:01.653Z,93.79
2023-05-17T04:57:02.276Z,93.48
2023-05-17T04:58:02.058Z,93.99
2023-05-17T04:59:02.523Z,93.99
2023-05-17T05:00:02.513Z,93.33
2023-05-17T05:01:02.129Z,92.71
2023-05-17T05:02:02.743Z,92.30
2023-05-17T05:03:03.190Z,91.95
2023-05-17T05:04:03.144Z,91.44
2023-05-17T05:05:03.099Z,91.64
2023-05-17T05:06:03.107Z,92.57
2023-05-17T05:07:02.716Z,93.39
2023-05-17T05:08:02.750Z,93.70
2023-05-17T05:09:02.652Z,93.39
2023-05-17T05:10:02.866Z,93.24
2023-05-17T05:11:02.825Z,93.04
2023-05-17T05:12:02.552Z,93.44
2023-05-17T05:13:02.515Z,94.27
2023-05-17T05:14:02.575Z,95.03
2023-05-17T05:15:02.439Z,95.24
2023-05-17T05:16:02.718Z,95.61
2023-05-17T05:17:02.912Z,94.58
2023-05-17T05:18:02.500Z,94.48
2023-05-17T05:19:02.607Z,94.27
2023-05-17T05:20:02.772Z,94.02
2023-05-17T05:21:02.782Z,94.43
2023-05-17T05:22:02.879Z,93.57
2023-05-17T05:23:02.989Z,93.05
2023-05-17T05:24:02.828Z,92.64
2023-05-17T05:25:02.719Z,92.54
2023-05-17T05:26:02.876Z,91.78
2023-05-17T05:27:04.416Z,91.16
2023-05-17T05:28:03.058Z,91.16
2023-05-17T05:29:02.952Z,91.16
2023-05-17T05:30:02.968Z,90.71
2023-05-17T05:31:02.771Z,90.50
2023-05-17T05:32:02.478Z,91.22
2023-05-17T05:33:02.567Z,91.02
2023-05-17T05:34:02.783Z,91.42
2023-05-17T05:35:02.473Z,91.08
2023-05-17T05:36:02.578Z,89.95
2023-05-17T05:37:01.809Z,89.64
2023-05-17T05:38:02.168Z,89.75
2023-05-17T05:39:01.978Z,89.84
2023-05-17T05:40:02.200Z,89.39
2023-05-17T05:41:02.217Z,90.52
2023-05-17T05:42:03.050Z,90.73
2023-05-17T05:43:02.646Z,90.32
2023-05-17T05:44:02.627Z,90.28
2023-05-17T05:45:02.533Z,90.07
2023-05-17T05:46:02.632Z,89.76
2023-05-17T05:47:02.156Z,90.28
2023-05-17T05:48:02.251Z,89.87
2023-05-17T05:49:02.345Z,90.13
2023-05-17T05:50:02.018Z,89.72
2023-05-17T05:51:01.851Z,90.23
2023-05-17T05:52:02.572Z,90.64
2023-05-17T05:53:17.196Z,89.68
2023-05-17T05:54:02.142Z,89.27
2023-05-17T05:55:02.300Z,89.47
2023-05-17T05:56:02.476Z,89.98
2023-05-17T05:57:02.169Z,90.19
2023-05-17T05:58:01.924Z,90.30
2023-05-17T05:59:01.938Z,89.58
2023-05-17T06:00:01.859Z,90.45
2023-05-17T06:01:03.990Z,89.94
2023-05-17T06:02:02.721Z,90.25
2023-05-17T06:03:02.380Z,90.56
2023-05-17T06:04:02.384Z,90.66
2023-05-17T06:05:02.462Z,90.45
2023-05-17T06:06:02.248Z,89.94
2023-05-17T06:07:02.279Z,89.50
2023-05-17T06:08:02.389Z,89.50
2023-05-17T06:09:02.370Z,89.90
2023-05-17T06:10:02.341Z,89.70
2023-05-17T06:11:01.720Z,89.80
2023-05-17T06:12:02.260Z,89.39
2023-05-17T06:13:02.356Z,90.21
2023-05-17T06:14:02.101Z,90.21
2023-05-17T06:15:02.190Z,89.90
2023-05-17T06:16:01.964Z,90.31
2023-05-17T06:17:02.624Z,90.41
2023-05-17T06:18:03.085Z,90.17
2023-05-17T06:19:02.882Z,90.06
2023-05-17T06:20:03.093Z,90.47
2023-05-17T06:21:03.015Z,89.56
2023-05-17T06:22:02.191Z,89.65
2023-05-17T06:23:02.445Z,90.06
2023-05-17T06:24:04.788Z,90.58
2023-05-17T06:25:02.453Z,90.78
2023-05-17T06:26:02.633Z,90.88
2023-05-17T06:27:02.698Z,90.64
2023-05-17T06:28:03.069Z,90.74
2023-05-17T06:29:02.413Z,90.74
2023-05-17T06:30:04.878Z,91.15
2023-05-17T06:31:03.084Z,90.74
2023-05-17T06:32:01.868Z,90.84
2023-05-17T06:33:02.061Z,90.80
2023-05-17T06:34:02.060Z,90.70
2023-05-17T06:35:02.221Z,91.00
2023-05-17T06:37:02.745Z,91.11
2023-05-17T06:38:02.695Z,91.20
2023-05-17T06:39:02.771Z,91.20
2023-05-17T06:40:10.002Z,90.66
2023-05-17T06:41:02.858Z,90.66
2023-05-17T06:42:02.075Z,90.35
2023-05-17T06:43:02.329Z,90.35
2023-05-17T06:44:02.253Z,90.55
2023-05-17T06:45:02.363Z,90.45
2023-05-17T06:46:02.059Z,90.25
2023-05-17T06:47:02.546Z,90.04
2023-05-17T06:48:02.378Z,89.73
2023-05-17T06:49:02.685Z,90.04
2023-05-17T06:50:02.457Z,90.00
2023-05-17T06:51:02.324Z,89.69
2023-05-17T06:52:02.832Z,89.39
2023-05-17T06:53:02.742Z,89.49
2023-05-17T06:54:02.753Z,89.69
2023-05-17T06:55:02.605Z,89.39
2023-05-17T06:56:02.574Z,89.55
2023-05-17T06:57:03.202Z,89.65
2023-05-17T06:58:02.792Z,89.65
2023-05-17T06:59:02.585Z,89.65
2023-05-17T07:00:02.650Z,90.01
2023-05-17T07:01:02.863Z,89.71
2023-05-17T07:02:02.054Z,89.20
2023-05-17T07:03:02.286Z,88.18
2023-05-17T07:04:01.991Z,88.24
2023-05-17T07:05:02.182Z,88.34
2023-05-17T07:06:02.251Z,87.73
2023-05-17T07:07:01.923Z,87.43
2023-05-17T07:08:01.999Z,86.68
2023-05-17T07:09:02.109Z,86.68
2023-05-17T07:10:01.953Z,86.47
2023-05-17T07:11:02.341Z,86.37
2023-05-17T07:12:02.915Z,86.27
2023-05-17T07:13:02.820Z,86.06
2023-05-17T07:14:02.650Z,85.96
2023-05-17T07:15:02.711Z,86.47
2023-05-17T07:16:02.520Z,85.72
2023-05-17T07:17:02.403Z,85.51
2023-05-17T07:18:02.382Z,85.61
2023-05-17T07:19:01.955Z,85.31
2023-05-17T07:20:02.049Z,83.89
2023-05-17T07:21:02.378Z,84.19
2023-05-17T07:22:02.660Z,84.56
2023-05-17T07:23:02.708Z,84.66
2023-05-17T07:24:02.597Z,84.42
2023-05-17T07:25:03.012Z,82.28
2023-05-17T07:26:02.706Z,82.59
2023-05-17T07:27:01.933Z,83.06
2023-05-17T07:28:02.175Z,82.04
2023-05-17T07:29:01.825Z,81.70
2023-05-17T07:30:02.080Z,81.09
2023-05-17T07:31:01.715Z,80.47
2023-05-17T07:32:01.951Z,81.19
2023-05-17T07:33:01.996Z,79.63
2023-05-17T07:34:01.995Z,79.63
2023-05-17T07:35:02.168Z,79.32
2023-05-17T07:36:01.619Z,79.59
2023-05-17T07:37:02.546Z,79.38
2023-05-17T07:38:02.327Z,78.57
2023-05-17T07:39:02.086Z,78.47
2023-05-17T07:40:02.062Z,78.47
2023-05-17T07:41:02.312Z,78.67
2023-05-17T07:42:04.568Z,79.14
2023-05-17T07:43:02.681Z,78.94
2023-05-17T07:44:02.265Z,78.23
2023-05-17T07:45:02.217Z,77.42
2023-05-17T07:46:02.378Z,77.12
2023-05-17T07:47:02.851Z,77.22
2023-05-17T07:48:02.963Z,77.83
2023-05-17T07:49:02.776Z,78.13
2023-05-17T07:50:02.732Z,78.53
2023-05-17T07:51:02.656Z,78.13
2023-05-17T07:52:02.362Z,76.98
2023-05-17T07:53:01.983Z,76.47
2023-05-17T07:54:01.933Z,76.57
2023-05-17T07:55:01.849Z,75.96
2023-05-17T07:56:01.933Z,75.05
2023-05-17T07:57:03.028Z,75.35
2023-05-17T07:58:02.617Z,76.43
2023-05-17T07:59:02.979Z,77.86
2023-05-17T08:00:02.424Z,76.09
2023-05-17T08:01:02.356Z,76.50
2023-05-17T08:02:02.812Z,74.68
2023-05-17T08:03:03.509Z,75.59
2023-05-17T08:04:02.875Z,74.04
2023-05-17T08:05:02.979Z,73.43
2023-05-17T08:06:03.343Z,74.44
2023-05-17T08:07:03.380Z,74.30
2023-05-17T08:08:03.162Z,73.80
2023-05-17T08:09:03.376Z,72.34
2023-05-17T08:10:03.503Z,71.13
2023-05-17T08:11:03.400Z,69.61
2023-05-17T08:12:03.163Z,69.92
2023-05-17T08:13:03.123Z,69.92
2023-05-17T08:14:03.248Z,70.32
2023-05-17T08:15:03.011Z,70.29
2023-05-17T08:16:12.882Z,69.51
2023-05-17T08:17:03.813Z,69.81
2023-05-17T08:18:04.938Z,69.10
2023-05-17T08:19:03.969Z,69.81
2023-05-17T08:20:03.447Z,70.52
2023-05-17T08:21:03.592Z,69.58
2023-05-17T08:22:02.917Z,69.89
2023-05-17T08:23:02.824Z,68.77
2023-05-17T08:24:04.058Z,69.01
2023-05-17T08:25:02.715Z,68.90
2023-05-17T08:26:02.578Z,69.31
2023-05-17T08:27:03.297Z,68.40
2023-05-17T08:28:03.015Z,68.50
2023-05-17T08:29:03.491Z,69.51
2023-05-17T08:30:05.311Z,69.21
2023-05-17T08:31:03.288Z,69.21
2023-05-17T08:32:03.314Z,69.21
2023-05-17T08:33:03.560Z,68.33
2023-05-17T08:34:03.575Z,69.95
2023-05-17T08:35:03.283Z,70.05
2023-05-17T08:36:03.511Z,70.76
2023-05-17T08:37:03.700Z,70.02
2023-05-17T08:38:03.294Z,69.41
2023-05-17T08:39:03.532Z,69.61
2023-05-17T08:40:03.868Z,69.01
2023-05-17T08:41:03.453Z,71.33
2023-05-17T08:42:03.298Z,71.91
2023-05-17T08:43:02.766Z,72.41
2023-05-17T08:44:03.307Z,71.17
2023-05-17T08:45:02.823Z,68.20
2023-05-17T08:46:03.038Z,67.69
2023-05-17T08:47:03.355Z,67.19
2023-05-17T08:48:03.259Z,66.96
2023-05-17T08:49:03.299Z,66.86
2023-05-17T08:50:03.328Z,65.51
2023-05-17T08:51:03.424Z,65.31
2023-05-17T08:52:02.578Z,64.20
2023-05-17T08:53:03.163Z,63.49
2023-05-17T08:54:02.763Z,63.90
2023-05-17T08:55:02.528Z,63.49
2023-05-17T08:56:02.654Z,63.49
2023-05-17T08:57:02.919Z,63.49
2023-05-17T08:58:03.159Z,63.09
2023-05-17T08:59:03.344Z,63.19
2023-05-17T09:00:03.378Z,62.48
2023-05-17T09:01:02.778Z,62.38
2023-05-17T09:02:02.698Z,62.38
2023-05-17T09:03:02.707Z,61.98
2023-05-17T09:04:02.835Z,63.02
2023-05-17T09:05:03.112Z,63.12
2023-05-17T09:06:02.823Z,63.73
2023-05-17T09:07:03.334Z,61.77
2023-05-17T09:08:03.079Z,59.76
2023-05-17T09:09:02.747Z,60.16
2023-05-17T09:10:03.156Z,58.75
2023-05-17T09:11:02.860Z,60.53
2023-05-17T09:12:03.246Z,61.35
2023-05-17T09:13:03.154Z,56.77
2023-05-17T09:14:03.808Z,56.98
2023-05-17T09:15:03.722Z,57.89
2023-05-17T09:16:03.105Z,58.87
2023-05-17T09:17:03.666Z,58.06
2023-05-17T09:18:03.780Z,56.82
2023-05-17T09:19:04.040Z,55.41
2023-05-17T09:20:03.408Z,56.09
2023-05-17T09:21:03.540Z,53.27
2023-05-17T09:22:03.125Z,52.57
2023-05-17T09:23:02.894Z,54.15
2023-05-17T09:24:07.068Z,52.84
2023-05-17T09:25:02.785Z,53.12
2023-05-17T09:26:02.511Z,53.12
2023-05-17T09:27:02.988Z,53.42
2023-05-17T09:28:03.387Z,54.00
2023-05-17T09:29:02.818Z,54.50
2023-05-17T09:30:02.987Z,51.79
2023-05-17T09:31:02.849Z,51.59
2023-05-17T09:32:03.140Z,51.39
2023-05-17T09:33:03.112Z,50.81
2023-05-17T09:34:03.116Z,49.82
2023-05-17T09:35:03.173Z,51.23
2023-05-17T09:36:03.004Z,50.43
2023-05-17T09:37:03.233Z,51.03
2023-05-17T09:38:03.177Z,51.84
2023-05-17T09:39:02.722Z,52.11
2023-05-17T09:40:03.075Z,49.80
2023-05-17T09:41:03.213Z,50.93
2023-05-17T09:42:03.115Z,51.34
2023-05-17T09:43:02.997Z,53.42
2023-05-17T09:44:03.347Z,50.40
2023-05-17T09:45:03.269Z,50.81
2023-05-17T09:46:03.378Z,50.40
2023-05-17T09:47:02.730Z,52.22
2023-05-17T09:48:02.850Z,50.71
2023-05-17T09:49:02.954Z,48.90
2023-05-17T09:50:02.855Z,51.81
2023-05-17T09:51:02.918Z,51.21
2023-05-17T09:52:03.042Z,51.51
2023-05-17T09:53:03.342Z,52.51
2023-05-17T09:54:03.267Z,51.49
2023-05-17T09:55:03.479Z,51.29
2023-05-17T09:56:03.658Z,50.46
2023-05-17T09:57:03.462Z,50.68
2023-05-17T09:58:03.521Z,50.48
2023-05-17T09:59:03.356Z,51.49
2023-05-17T10:00:03.430Z,51.09
2023-05-17T10:01:03.317Z,52.39
2023-05-17T10:02:03.327Z,50.58
2023-05-17T10:03:03.048Z,51.99
2023-05-17T10:04:03.294Z,51.59
2023-05-17T10:05:03.382Z,51.18
2023-05-17T10:06:03.115Z,50.38
2023-05-17T10:07:03.025Z,49.57
2023-05-17T10:08:03.089Z,51.99
2023-05-17T10:09:02.600Z,54.10
2023-05-17T10:10:02.831Z,52.19
2023-05-17T10:11:02.503Z,50.46
2023-05-17T10:12:03.383Z,50.35
2023-05-17T10:13:03.509Z,52.37
2023-05-17T10:14:03.369Z,52.97
2023-05-17T10:15:03.235Z,52.24
2023-05-17T10:16:03.537Z,48.83
2023-05-17T10:17:02.628Z,51.04
2023-05-17T10:18:03.085Z,48.83
2023-05-17T10:19:02.879Z,48.63
2023-05-17T10:20:02.817Z,46.44
2023-05-17T10:21:02.827Z,49.25
2023-05-17T10:22:18.802Z,50.76
2023-05-17T10:23:03.294Z,48.72
2023-05-17T10:24:02.835Z,49.53
2023-05-17T10:25:03.388Z,49.63
2023-05-17T10:26:03.153Z,49.93
2023-05-17T10:27:02.846Z,48.22
2023-05-17T10:28:02.645Z,47.82
2023-05-17T10:29:02.525Z,48.65
2023-05-17T10:30:02.906Z,52.24
2023-05-17T10:31:02.856Z,49.21
2023-05-17T10:32:03.378Z,50.81
2023-05-17T10:33:03.210Z,49.78
2023-05-17T10:34:03.091Z,49.56
2023-05-17T10:35:11.548Z,48.75
2023-05-17T10:36:03.135Z,48.33
2023-05-17T10:37:03.231Z,48.43
2023-05-17T10:38:02.972Z,48.43
2023-05-17T10:39:03.154Z,47.20
2023-05-17T10:40:02.892Z,48.41
2023-05-17T10:41:03.236Z,47.03
2023-05-17T10:42:14.202Z,47.73
2023-05-17T10:43:02.725Z,48.13
2023-05-17T10:44:02.845Z,47.23
2023-05-17T10:45:02.390Z,47.13
2023-05-17T10:46:03.006Z,47.81
2023-05-17T10:47:02.878Z,46.70
2023-05-17T10:48:02.793Z,45.90
2023-05-17T10:49:02.647Z,45.92
2023-05-17T10:50:02.633Z,46.23
2023-05-17T10:51:02.536Z,48.83
2023-05-17T10:52:02.818Z,47.75
2023-05-17T10:53:03.069Z,47.45
2023-05-17T10:54:03.011Z,49.96
2023-05-17T10:55:03.347Z,48.66
2023-05-17T10:56:03.258Z,46.45
2023-05-17T10:57:03.349Z,46.45
2023-05-17T10:58:03.434Z,47.83
2023-05-17T10:59:03.731Z,47.50
2023-05-17T11:00:03.067Z,46.61
2023-05-17T11:01:03.710Z,45.92
2023-05-17T11:02:02.474Z,44.62
2023-05-17T11:03:02.534Z,43.72
2023-05-17T11:04:02.797Z,45.42
2023-05-17T11:05:02.554Z,46.62
2023-05-17T11:06:02.324Z,46.61
2023-05-17T11:07:04.860Z,48.28
2023-05-17T11:08:02.902Z,47.56
2023-05-17T11:09:03.109Z,47.86
2023-05-17T11:10:02.876Z,46.04
2023-05-17T11:11:02.870Z,47.14
2023-05-17T11:12:02.638Z,47.34
2023-05-17T11:13:02.599Z,44.71
2023-05-17T11:14:02.052Z,45.42
2023-05-17T11:15:02.330Z,45.72
2023-05-17T11:16:02.102Z,43.41
2023-05-17T11:17:02.124Z,44.71
2023-05-17T11:18:02.448Z,45.62
2023-05-17T11:19:02.811Z,44.51
2023-05-17T11:20:02.737Z,44.12
2023-05-17T11:21:02.472Z,44.04
2023-05-17T11:22:03.168Z,44.74
2023-05-17T11:23:02.986Z,45.96
2023-05-17T11:24:03.154Z,44.56
2023-05-17T11:25:02.949Z,41.97
2023-05-17T11:26:12.894Z,44.68
2023-05-17T11:27:02.751Z,44.18
2023-05-17T11:28:02.353Z,43.30
2023-05-17T11:29:02.529Z,45.12
2023-05-17T11:30:02.596Z,45.22
2023-05-17T11:31:02.441Z,43.22
2023-05-17T11:32:02.764Z,44.52
2023-05-17T11:33:02.968Z,44.92
2023-05-17T11:34:02.905Z,43.62
2023-05-17T11:35:02.556Z,45.72
2023-05-17T11:36:02.741Z,46.83
2023-05-17T11:37:02.744Z,48.51
2023-05-17T11:38:03.041Z,46.30
2023-05-17T11:39:08.011Z,45.98
2023-05-17T11:40:02.870Z,45.98
2023-05-17T11:41:04.757Z,44.78
2023-05-17T11:42:02.211Z,46.48
2023-05-17T11:43:02.660Z,46.86
2023-05-17T11:44:02.381Z,44.96
2023-05-17T11:45:02.664Z,44.76
2023-05-17T11:46:02.502Z,46.66
2023-05-17T11:47:02.833Z,45.26
2023-05-17T11:48:02.434Z,45.36
2023-05-17T11:49:02.365Z,44.48
2023-05-17T11:50:02.331Z,45.88
2023-05-17T11:51:02.865Z,45.66
2023-05-17T11:52:03.359Z,45.26
2023-05-17T11:53:03.514Z,45.04
2023-05-17T11:54:02.913Z,45.64
2023-05-17T11:55:03.257Z,45.81
2023-05-17T11:56:02.835Z,44.71
2023-05-17T11:57:02.212Z,43.62
2023-05-17T11:58:02.373Z,44.32
2023-05-17T11:59:02.523Z,43.91
2023-05-17T12:00:02.547Z,44.21
2023-05-17T12:01:02.753Z,42.52
2023-05-17T12:02:02.796Z,44.32
2023-05-17T12:03:02.788Z,44.71
2023-05-17T12:04:02.464Z,46.00
2023-05-17T12:05:03.074Z,46.47
2023-05-17T12:06:02.887Z,45.37
2023-05-17T12:07:02.684Z,42.97
2023-05-17T12:08:02.624Z,42.57
2023-05-17T12:09:02.778Z,44.57
2023-05-17T12:10:02.966Z,41.97
2023-05-17T12:11:03.098Z,42.68
2023-05-17T12:12:03.811Z,43.98
2023-05-17T12:13:03.329Z,44.57
2023-05-17T12:14:03.610Z,43.57
2023-05-17T12:15:03.405Z,42.55
2023-05-17T12:16:03.688Z,42.65
2023-05-17T12:17:03.350Z,43.85
2023-05-17T12:18:03.140Z,41.75
2023-05-17T12:19:03.609Z,43.98
2023-05-17T12:20:03.053Z,43.27
2023-05-17T12:21:03.331Z,42.65
2023-05-17T12:22:03.237Z,40.75
2023-05-17T12:23:03.418Z,42.25
2023-05-17T12:24:03.345Z,40.75
2023-05-17T12:25:03.527Z,41.14
2023-05-17T12:26:03.381Z,40.86
2023-05-17T12:27:03.346Z,41.44
2023-05-17T12:28:03.644Z,42.54
2023-05-17T12:29:03.535Z,41.24
2023-05-17T12:30:03.447Z,41.14
2023-05-17T12:31:03.931Z,42.91
2023-05-17T12:32:03.099Z,42.41
2023-05-17T12:33:03.442Z,42.11
2023-05-17T12:34:03.251Z,41.31
2023-05-17T12:35:03.072Z,39.84
2023-05-17T12:36:03.153Z,40.36
2023-05-17T12:37:03.406Z,40.36
2023-05-17T12:38:03.840Z,42.93
2023-05-17T12:39:03.321Z,40.53
2023-05-17T12:40:03.864Z,41.02
2023-05-17T12:41:03.805Z,42.41
2023-05-17T12:42:02.916Z,41.31
2023-05-17T12:43:03.560Z,40.32
2023-05-17T12:44:14.873Z,40.53
2023-05-17T12:45:03.185Z,39.78
2023-05-17T12:46:03.897Z,41.39
2023-05-17T12:47:03.495Z,40.99
2023-05-17T12:48:03.425Z,41.80
2023-05-17T12:49:04.047Z,42.49
2023-05-17T12:50:03.548Z,41.60
2023-05-17T12:51:04.013Z,43.09
2023-05-17T12:52:03.141Z,41.58
2023-05-17T12:53:03.496Z,41.27